createdAt,value
2023-01-23T00:00:13.355Z,-3.62
2023-01-23T00:02:39.798Z,-3.66
2023-01-23T00:05:07.234Z,-3.56
2023-01-23T00:07:33.672Z,-3.79
2023-01-23T00:10:00.206Z,-3.96
2023-01-23T00:12:26.697Z,-3.99
2023-01-23T00:14:53.768Z,-3.79
2023-01-23T00:17:20.218Z,-3.87
2023-01-23T00:19:46.698Z,-4.00
2023-01-23T00:22:14.555Z,-4.00
2023-01-23T00:24:41.146Z,-4.05
2023-01-23T00:27:07.638Z,2.18
2023-01-23T00:29:34.209Z,0.76
2023-01-23T00:32:01.245Z,-1.26
2023-01-23T00:34:27.866Z,-2.43
2023-01-23T00:36:54.241Z,-3.18
2023-01-23T00:39:23.635Z,-3.59
2023-01-23T00:41:50.245Z,-3.93
2023-01-23T00:44:17.604Z,-4.13
2023-01-23T00:46:44.264Z,-4.17
2023-01-23T00:49:11.353Z,-4.08
2023-01-23T00:51:37.845Z,-4.00
2023-01-23T00:54:04.440Z,-4.18
2023-01-23T00:56:30.939Z,-4.04
2023-01-23T00:58:57.411Z,-4.24
2023-01-23T01:01:23.921Z,-4.36
2023-01-23T01:03:50.419Z,-4.50
2023-01-23T01:06:17.587Z,-4.51
2023-01-23T01:08:44.053Z,-4.44
2023-01-23T01:11:10.463Z,-4.37
2023-01-23T01:13:37.004Z,-4.71
2023-01-23T01:16:04.170Z,-4.78
2023-01-23T01:18:30.786Z,-4.68
2023-01-23T01:20:57.732Z,-4.44
2023-01-23T01:23:25.189Z,-4.15
2023-01-23T01:25:51.679Z,-4.02
2023-01-23T01:28:18.302Z,-4.39
2023-01-23T01:30:44.779Z,-4.54
2023-01-23T01:33:11.225Z,-4.26
2023-01-23T01:35:39.288Z,-4.15
2023-01-23T01:38:05.720Z,-4.00
2023-01-23T01:40:34.823Z,-4.01
2023-01-23T01:43:05.150Z,-4.25
2023-01-23T01:46:09.240Z,-4.20
2023-01-23T01:48:40.162Z,-4.03
2023-01-23T01:51:15.169Z,-3.87
2023-01-23T01:53:42.689Z,-3.88
2023-01-23T01:56:12.549Z,-3.94
2023-01-23T01:58:40.977Z,-3.86
2023-01-23T02:01:08.435Z,-3.84
2023-01-23T02:03:37.622Z,-3.64
2023-01-23T02:06:05.926Z,-3.66
2023-01-23T02:08:39.295Z,-3.55
2023-01-23T02:11:06.740Z,-3.69
2023-01-23T02:13:36.384Z,-3.66
2023-01-23T02:16:05.856Z,-3.69
2023-01-23T02:18:34.453Z,-3.61
2023-01-23T02:21:05.655Z,-3.53
2023-01-23T02:23:42.571Z,-3.30
2023-01-23T02:26:15.977Z,-3.18
2023-01-23T02:28:46.525Z,-3.24
2023-01-23T02:31:18.206Z,-3.21
2023-01-23T02:33:50.317Z,-3.16
2023-01-23T02:36:19.930Z,-3.18
2023-01-23T02:38:55.095Z,-3.35
2023-01-23T02:41:28.329Z,-3.33
2023-01-23T02:43:56.689Z,-3.45
2023-01-23T02:46:24.510Z,-3.28
2023-01-23T02:48:51.237Z,-3.26
2023-01-23T02:51:20.184Z,-3.35
2023-01-23T02:53:47.877Z,-3.21
2023-01-23T02:56:15.343Z,-3.24
2023-01-23T02:59:02.165Z,-3.15
2023-01-23T03:01:29.209Z,-2.93
2023-01-23T03:03:56.263Z,-3.06
2023-01-23T03:06:23.736Z,-3.42
2023-01-23T03:08:50.673Z,-3.16
2023-01-23T03:11:18.773Z,-3.06
2023-01-23T03:13:46.902Z,-3.01
2023-01-23T03:16:13.863Z,-2.88
2023-01-23T03:18:53.529Z,-2.70
2023-01-23T03:21:21.246Z,-2.75
2023-01-23T03:23:47.747Z,-2.68
2023-01-23T03:26:14.649Z,-2.80
2023-01-23T03:28:59.103Z,-2.90
2023-01-23T03:31:26.295Z,-2.85
2023-01-23T03:33:53.167Z,-2.80
2023-01-23T03:36:20.375Z,-2.81
2023-01-23T03:39:11.073Z,-2.75
2023-01-23T03:41:41.163Z,-2.72
2023-01-23T03:44:08.387Z,-2.65
2023-01-23T03:46:35.962Z,-2.57
2023-01-23T03:49:02.915Z,-2.61
2023-01-23T03:51:29.451Z,-2.52
2023-01-23T03:53:56.029Z,-2.59
2023-01-23T03:56:22.589Z,-2.48
2023-01-23T03:58:49.798Z,-2.53
2023-01-23T04:01:19.117Z,-2.60
2023-01-23T04:03:46.323Z,-2.57
2023-01-23T04:06:12.802Z,-2.45
2023-01-23T04:08:39.447Z,-2.44
2023-01-23T04:11:09.929Z,-2.36
2023-01-23T04:13:36.872Z,-2.35
2023-01-23T04:16:04.954Z,-2.29
2023-01-23T04:18:32.607Z,-2.26
2023-01-23T04:21:00.096Z,-2.23
2023-01-23T04:23:26.601Z,-2.27
2023-01-23T04:25:53.482Z,-2.36
2023-01-23T04:28:21.304Z,-2.35
2023-01-23T04:30:49.984Z,-2.30
2023-01-23T04:33:23.154Z,-2.32
2023-01-23T04:35:51.101Z,-2.20
2023-01-23T04:38:18.373Z,-2.02
2023-01-23T04:40:46.607Z,-2.02
2023-01-23T04:43:13.147Z,-2.13
2023-01-23T04:45:47.567Z,-2.03
2023-01-23T04:48:26.055Z,-1.88
2023-01-23T04:50:53.350Z,-1.95
2023-01-23T04:53:20.461Z,-2.08
2023-01-23T04:55:52.876Z,-2.01
2023-01-23T04:58:19.885Z,-1.98
2023-01-23T05:00:46.610Z,-2.00
2023-01-23T05:03:13.589Z,-2.11
2023-01-23T05:05:44.256Z,-1.90
2023-01-23T05:08:11.232Z,-1.99
2023-01-23T05:10:39.106Z,-2.14
2023-01-23T05:13:09.581Z,-2.20
2023-01-23T05:15:36.224Z,-2.19
2023-01-23T05:18:02.837Z,-2.02
2023-01-23T05:20:29.416Z,-2.20
2023-01-23T05:23:00.327Z,-2.34
2023-01-23T05:25:34.776Z,-2.18
2023-01-23T05:28:01.957Z,-2.09
2023-01-23T05:30:30.439Z,-1.94
2023-01-23T05:33:12.438Z,-2.24
2023-01-23T05:35:39.693Z,-2.07
2023-01-23T05:38:06.712Z,-2.06
2023-01-23T05:40:33.466Z,-2.09
2023-01-23T05:43:26.764Z,-2.11
2023-01-23T05:46:16.698Z,-2.17
2023-01-23T05:48:49.271Z,-2.08
2023-01-23T05:51:16.442Z,-2.21
2023-01-23T05:53:44.015Z,-2.31
2023-01-23T05:56:11.172Z,-2.24
2023-01-23T05:58:49.524Z,-2.30
2023-01-23T06:01:26.797Z,-2.42
2023-01-23T06:04:28.512Z,-2.46
2023-01-23T06:07:27.481Z,-2.59
2023-01-23T06:09:56.956Z,-2.61
2023-01-23T06:12:23.597Z,-2.44
2023-01-23T06:14:50.915Z,-2.35
2023-01-23T06:17:17.543Z,-2.36
2023-01-23T06:19:44.265Z,-2.26
2023-01-23T06:22:11.217Z,-2.16
2023-01-23T06:24:55.915Z,-2.16
2023-01-23T06:27:22.709Z,-2.04
2023-01-23T06:29:50.842Z,-2.18
2023-01-23T06:32:17.576Z,-2.16
2023-01-23T06:34:46.305Z,-2.25
2023-01-23T06:37:12.918Z,-2.36
2023-01-23T06:39:42.660Z,-2.47
2023-01-23T06:42:24.720Z,-2.76
2023-01-23T06:44:52.955Z,-2.56
2023-01-23T06:47:22.477Z,-2.34
2023-01-23T06:49:55.147Z,-2.18
2023-01-23T06:52:23.147Z,-2.16
2023-01-23T06:54:50.125Z,-2.07
2023-01-23T06:57:16.872Z,-2.03
2023-01-23T06:59:45.494Z,-2.08
2023-01-23T07:02:14.807Z,-2.20
2023-01-23T07:04:51.345Z,-2.02
2023-01-23T07:07:18.308Z,-1.92
2023-01-23T07:09:47.573Z,-1.91
2023-01-23T07:12:18.611Z,-1.98
2023-01-23T07:14:45.608Z,-1.86
2023-01-23T07:17:16.790Z,-1.53
2023-01-23T07:19:43.284Z,-1.75
2023-01-23T07:22:16.332Z,-1.59
2023-01-23T07:24:42.776Z,-1.70
2023-01-23T07:27:09.190Z,-1.61
2023-01-23T07:29:35.721Z,-0.99
2023-01-23T07:32:02.290Z,-0.88
2023-01-23T07:34:29.358Z,-0.27
2023-01-23T07:36:55.767Z,-0.58
2023-01-23T07:39:22.333Z,-0.31
2023-01-23T07:41:48.759Z,-0.48
2023-01-23T07:44:17.861Z,-0.05
2023-01-23T07:46:44.343Z,-0.99
2023-01-23T07:49:11.001Z,-0.75
2023-01-23T07:51:38.296Z,-0.68
2023-01-23T07:54:05.360Z,-0.02
2023-01-23T07:56:32.277Z,-0.27
2023-01-23T07:58:58.748Z,-0.03
2023-01-23T08:01:25.313Z,-0.13
2023-01-23T08:03:52.500Z,-0.09
2023-01-23T08:06:19.174Z,0.15
2023-01-23T08:08:48.516Z,0.28
2023-01-23T08:11:15.280Z,0.04
2023-01-23T08:13:42.139Z,-0.22
2023-01-23T08:16:09.725Z,-0.37
2023-01-23T08:18:37.291Z,-0.23
2023-01-23T08:21:03.997Z,-0.31
2023-01-23T08:23:32.947Z,0.00
2023-01-23T08:26:03.087Z,-0.17
2023-01-23T08:28:29.780Z,-0.59
2023-01-23T08:31:00.050Z,-0.26
2023-01-23T08:33:26.567Z,-0.63
2023-01-23T08:35:54.850Z,-0.20
2023-01-23T08:38:21.729Z,-0.47
2023-01-23T08:40:50.331Z,-0.52
2023-01-23T08:43:18.469Z,-0.65
2023-01-23T08:45:48.843Z,-1.13
2023-01-23T08:48:15.595Z,-0.99
2023-01-23T08:50:42.359Z,-0.89
2023-01-23T08:53:08.800Z,-0.68
2023-01-23T08:55:37.660Z,-0.45
2023-01-23T08:58:04.389Z,-0.55
2023-01-23T09:00:32.266Z,-0.59
2023-01-23T09:02:59.458Z,-0.42
2023-01-23T09:05:26.793Z,-0.66
2023-01-23T09:07:53.227Z,-0.88
2023-01-23T09:10:20.146Z,-0.69
2023-01-23T09:12:46.693Z,-0.61
2023-01-23T09:15:13.213Z,-0.58
2023-01-23T09:17:40.270Z,-0.48
2023-01-23T09:20:08.566Z,-0.36
2023-01-23T09:22:35.684Z,-0.42
2023-01-23T09:25:02.320Z,-0.53
2023-01-23T09:27:28.767Z,-0.64
2023-01-23T09:29:55.211Z,-0.08
2023-01-23T09:32:21.583Z,-0.75
2023-01-23T09:34:48.717Z,-0.45
2023-01-23T09:37:15.642Z,-0.28
2023-01-23T09:39:42.717Z,-0.41
2023-01-23T09:42:16.692Z,-0.23
2023-01-23T09:44:48.194Z,-0.19
2023-01-23T09:47:19.744Z,-0.22
2023-01-23T09:49:52.354Z,-0.09
2023-01-23T09:52:21.406Z,-0.22
2023-01-23T09:54:50.231Z,-0.42
2023-01-23T09:57:20.769Z,-0.22
2023-01-23T10:00:00.698Z,0.12
2023-01-23T10:02:27.765Z,-0.20
2023-01-23T10:04:57.348Z,-0.14
2023-01-23T10:07:39.801Z,-0.15
2023-01-23T10:10:29.715Z,-0.16
2023-01-23T10:13:05.041Z,0.14
2023-01-23T10:15:53.808Z,-0.04
2023-01-23T10:18:25.739Z,-0.29
2023-01-23T10:21:04.196Z,-0.15
2023-01-23T10:23:47.255Z,-0.15
2023-01-23T10:26:18.153Z,-0.15
2023-01-23T10:28:46.495Z,-0.19
2023-01-23T10:31:28.431Z,-0.07
2023-01-23T10:34:05.032Z,0.21
2023-01-23T10:36:48.045Z,0.22
2023-01-23T10:39:26.005Z,0.06
2023-01-23T10:42:01.455Z,0.16
2023-01-23T10:44:28.751Z,0.05
2023-01-23T10:47:00.135Z,0.00
2023-01-23T10:49:29.041Z,0.19
2023-01-23T10:51:56.177Z,0.45
2023-01-23T10:54:31.775Z,0.55
2023-01-23T10:57:01.914Z,0.18
2023-01-23T10:59:34.013Z,0.36
2023-01-23T11:02:05.452Z,0.34
2023-01-23T11:04:36.251Z,0.43
2023-01-23T11:07:07.704Z,0.31
2023-01-23T11:09:47.015Z,0.69
2023-01-23T11:12:17.518Z,0.82
2023-01-23T11:14:44.434Z,0.68
2023-01-23T11:17:20.517Z,0.71
2023-01-23T11:19:50.912Z,0.23
2023-01-23T11:22:29.341Z,0.37
2023-01-23T11:24:56.296Z,0.60
2023-01-23T11:27:27.168Z,0.75
2023-01-23T11:30:05.819Z,1.03
2023-01-23T11:32:37.885Z,0.81
2023-01-23T11:35:12.624Z,0.52
2023-01-23T11:37:40.591Z,1.00
2023-01-23T11:40:12.556Z,0.74
2023-01-23T11:42:40.955Z,0.47
2023-01-23T11:45:14.033Z,0.13
2023-01-23T11:48:00.082Z,-0.07
2023-01-23T11:50:43.666Z,0.09
2023-01-23T11:53:36.764Z,0.11
2023-01-23T11:56:39.102Z,0.09
2023-01-23T11:59:30.790Z,0.03
2023-01-23T12:02:12.840Z,-0.01
2023-01-23T12:05:02.100Z,-0.19
2023-01-23T12:07:32.509Z,-0.14
2023-01-23T12:10:08.890Z,-0.09
2023-01-23T12:13:06.492Z,0.04
2023-01-23T12:15:43.610Z,0.19
2023-01-23T12:18:24.906Z,0.18
2023-01-23T12:21:00.555Z,0.13
2023-01-23T12:23:48.969Z,0.12
2023-01-23T12:26:19.062Z,0.19
2023-01-23T12:29:32.921Z,0.36
2023-01-23T12:32:15.508Z,0.26
2023-01-23T12:34:58.873Z,0.18
2023-01-23T12:37:39.111Z,0.09
2023-01-23T12:40:12.558Z,0.14
2023-01-23T12:42:48.162Z,0.18
2023-01-23T12:45:22.194Z,0.09
2023-01-23T12:47:56.744Z,0.04
2023-01-23T12:50:34.285Z,0.17
2023-01-23T12:53:06.548Z,-0.09
2023-01-23T12:55:36.470Z,0.10
2023-01-23T12:58:09.476Z,0.14
2023-01-23T13:00:52.351Z,0.14
2023-01-23T13:03:47.193Z,0.24
2023-01-23T13:06:26.455Z,0.25
2023-01-23T13:09:08.892Z,0.26
2023-01-23T13:11:50.039Z,0.11
2023-01-23T13:14:22.162Z,0.05
2023-01-23T13:16:50.559Z,0.02
2023-01-23T13:19:42.151Z,0.09
2023-01-23T13:22:27.270Z,-0.05
2023-01-23T13:25:11.774Z,-0.04
2023-01-23T13:27:46.514Z,0.04
2023-01-23T13:30:42.088Z,0.06
2023-01-23T13:33:51.810Z,0.03
2023-01-23T13:36:33.616Z,-0.02
2023-01-23T13:39:02.206Z,-0.09
2023-01-23T13:41:29.538Z,-0.09
2023-01-23T13:44:03.335Z,0.05
2023-01-23T14:24:22.150Z,0.44
2023-01-23T14:26:50.653Z,0.39
2023-01-23T14:29:21.815Z,0.43
2023-01-23T14:31:50.333Z,0.43
2023-01-23T14:34:19.137Z,1.30
2023-01-23T14:36:49.717Z,0.82
2023-01-23T14:39:19.594Z,0.46
2023-01-23T14:41:47.666Z,0.42
2023-01-23T14:44:19.987Z,0.45
2023-01-23T14:46:51.654Z,0.44
2023-01-23T14:49:25.939Z,0.45
2023-01-23T14:51:58.936Z,0.50
2023-01-23T14:54:29.598Z,0.37
2023-01-23T14:57:03.581Z,0.93
2023-01-23T14:59:33.460Z,0.67
2023-01-23T15:02:05.331Z,0.45
2023-01-23T15:04:36.661Z,0.39
2023-01-23T15:07:03.891Z,0.35
2023-01-23T15:09:33.749Z,0.27
2023-01-23T15:12:05.285Z,0.30
2023-01-23T15:14:36.082Z,0.25
2023-01-23T15:17:04.801Z,0.30
2023-01-23T15:19:34.460Z,0.38
2023-01-23T15:22:18.680Z,0.31
2023-01-23T15:24:45.682Z,0.32
2023-01-23T15:27:27.353Z,0.23
2023-01-23T15:30:27.014Z,0.37
2023-01-23T15:32:53.647Z,0.36
2023-01-23T15:35:20.485Z,0.28
2023-01-23T15:37:49.018Z,0.21
2023-01-23T15:40:18.497Z,0.25
2023-01-23T15:43:00.937Z,0.31
2023-01-23T15:45:27.485Z,0.32
2023-01-23T15:47:53.904Z,0.27
2023-01-23T15:50:20.574Z,0.21
2023-01-23T15:52:49.934Z,0.18
2023-01-23T15:55:16.878Z,0.11
2023-01-23T15:57:43.357Z,0.09
2023-01-23T16:00:14.597Z,0.11
2023-01-23T16:02:54.712Z,0.15
2023-01-23T16:05:24.442Z,0.14
2023-01-23T16:07:53.200Z,0.07
2023-01-23T16:10:21.998Z,0.08
2023-01-23T16:12:50.221Z,0.12
2023-01-23T16:15:18.218Z,0.18
2023-01-23T16:17:44.767Z,0.17
2023-01-23T16:20:14.206Z,0.04
2023-01-23T16:22:41.197Z,0.06
2023-01-23T16:25:17.428Z,0.04
2023-01-23T16:27:43.923Z,0.03
2023-01-23T16:30:16.854Z,0.04
2023-01-23T16:32:43.993Z,0.00
2023-01-23T16:35:11.462Z,0.01
2023-01-23T16:37:40.414Z,0.03
2023-01-23T16:40:16.182Z,0.04
2023-01-23T16:42:44.247Z,0.07
2023-01-23T16:45:15.088Z,0.03
2023-01-23T16:47:41.487Z,0.02
2023-01-23T16:50:11.150Z,0.04
2023-01-23T16:52:37.818Z,0.07
2023-01-23T16:55:15.597Z,0.10
2023-01-23T16:57:42.739Z,0.15
2023-01-23T17:00:14.252Z,0.12
2023-01-23T17:02:40.941Z,0.07
2023-01-23T17:05:08.525Z,0.11
2023-01-23T17:07:35.020Z,0.10
2023-01-23T17:10:01.810Z,0.14
2023-01-23T17:12:32.282Z,0.11
2023-01-23T17:14:59.439Z,0.09
2023-01-23T17:17:31.353Z,0.13
2023-01-23T17:20:00.308Z,0.06
2023-01-23T17:22:29.946Z,0.12
2023-01-23T17:24:56.602Z,0.12
2023-01-23T17:27:23.288Z,0.09
2023-01-23T17:29:49.813Z,0.15
2023-01-23T17:32:26.711Z,0.13
2023-01-23T17:34:54.031Z,0.12
2023-01-23T17:37:22.344Z,0.06
2023-01-23T17:39:48.922Z,0.09
2023-01-23T17:42:15.751Z,0.12
2023-01-23T17:44:42.700Z,0.11
2023-01-23T17:47:11.741Z,0.06
2023-01-23T17:49:39.516Z,0.09
2023-01-23T17:52:06.045Z,0.10
2023-01-23T17:54:32.724Z,0.09
2023-01-23T17:56:59.294Z,0.10
2023-01-23T17:59:26.036Z,0.01
2023-01-23T18:01:52.601Z,0.09
2023-01-23T18:04:21.390Z,0.07
2023-01-23T18:06:49.043Z,0.05
2023-01-23T18:09:15.763Z,0.04
2023-01-23T18:11:49.628Z,0.08
2023-01-23T18:14:40.785Z,0.08
2023-01-23T18:17:19.345Z,0.00
2023-01-23T18:19:46.406Z,0.33
2023-01-23T18:22:14.319Z,0.32
2023-01-23T18:24:41.367Z,0.17
2023-01-23T18:27:19.153Z,0.13
2023-01-23T18:30:03.028Z,-0.02
2023-01-23T18:32:51.143Z,0.06
2023-01-23T18:35:30.148Z,0.10
2023-01-23T18:38:05.992Z,0.08
2023-01-23T18:40:40.605Z,0.03
2023-01-23T18:43:18.733Z,0.04
2023-01-23T18:45:45.949Z,0.00
2023-01-23T18:48:24.625Z,0.07
2023-01-23T18:51:05.842Z,0.14
2023-01-23T18:53:45.543Z,0.09
2023-01-23T18:56:24.348Z,0.11
2023-01-23T18:59:11.106Z,0.12
2023-01-23T19:01:49.669Z,0.16
2023-01-23T19:04:19.577Z,0.16
2023-01-23T19:06:47.209Z,0.19
2023-01-23T19:09:22.504Z,0.05
2023-01-23T19:12:00.218Z,0.22
2023-01-23T19:14:45.596Z,0.16
2023-01-23T19:17:26.400Z,0.00
2023-01-23T19:20:00.443Z,-0.01
2023-01-23T19:22:45.354Z,0.06
2023-01-23T19:25:16.712Z,0.02
2023-01-23T19:27:51.591Z,0.06
2023-01-23T19:30:21.351Z,-0.10
2023-01-23T19:32:48.316Z,-0.05
2023-01-23T19:35:15.557Z,0.00
2023-01-23T19:37:43.480Z,-0.01
2023-01-23T19:40:15.621Z,0.03
2023-01-23T19:42:54.170Z,-0.07
2023-01-23T19:45:25.726Z,0.07
2023-01-23T19:47:52.660Z,0.06
2023-01-23T19:50:21.016Z,0.12
2023-01-23T19:52:49.158Z,0.11
2023-01-23T19:55:23.770Z,0.16
2023-01-23T19:57:51.555Z,0.12
2023-01-23T20:00:19.105Z,0.09
2023-01-23T20:02:45.938Z,0.07
2023-01-23T20:05:12.664Z,0.02
2023-01-23T20:07:39.191Z,0.00
2023-01-23T20:10:07.692Z,-0.06
2023-01-23T20:12:40.813Z,-0.07
2023-01-23T20:15:10.811Z,-0.08
2023-01-23T20:17:37.334Z,-0.07
2023-01-23T20:20:09.841Z,0.00
2023-01-23T20:22:37.094Z,0.10
2023-01-23T20:25:04.501Z,0.13
2023-01-23T20:27:31.039Z,0.05
2023-01-23T20:29:57.664Z,0.03
2023-01-23T20:32:25.424Z,-0.03
2023-01-23T20:34:54.351Z,0.05
2023-01-23T20:37:20.931Z,0.09
2023-01-23T20:39:47.567Z,0.17
2023-01-23T20:42:17.631Z,0.09
2023-01-23T20:44:44.280Z,0.10
2023-01-23T20:47:10.858Z,-0.07
2023-01-23T20:49:39.388Z,0.07
2023-01-23T20:52:24.972Z,0.10
2023-01-23T20:54:51.909Z,0.08
2023-01-23T20:57:20.596Z,0.07
2023-01-23T20:59:47.127Z,0.14
2023-01-23T21:02:22.521Z,0.16
2023-01-23T21:04:50.833Z,0.15
2023-01-23T21:07:17.789Z,0.12
2023-01-23T21:09:45.581Z,0.13
2023-01-23T21:12:12.535Z,0.10
2023-01-23T21:14:39.366Z,0.13
2023-01-23T21:17:07.832Z,0.16
2023-01-23T21:19:36.499Z,0.23
2023-01-23T21:22:05.258Z,0.11
2023-01-23T21:24:36.845Z,0.16
2023-01-23T21:27:05.197Z,0.17
2023-01-23T21:29:32.960Z,0.21
2023-01-23T21:32:00.133Z,0.44
2023-01-23T21:34:26.772Z,0.58
2023-01-23T21:36:53.480Z,0.60
2023-01-23T21:39:20.740Z,0.37
2023-01-23T21:41:47.518Z,0.20
2023-01-23T21:44:14.115Z,0.14
2023-01-23T21:46:41.001Z,0.14
2023-01-23T21:49:07.800Z,0.18
2023-01-23T21:51:34.374Z,0.07
2023-01-23T21:54:01.120Z,0.15
2023-01-23T21:56:28.334Z,0.12
2023-01-23T21:58:55.169Z,0.17
2023-01-23T22:01:32.356Z,0.26
2023-01-23T22:03:59.896Z,0.28
2023-01-23T22:06:26.464Z,0.26
2023-01-23T22:08:53.422Z,0.25
2023-01-23T22:11:22.690Z,0.15
2023-01-23T22:13:50.393Z,0.12
2023-01-23T22:16:17.197Z,0.16
2023-01-23T22:18:43.850Z,0.05
2023-01-23T22:21:10.911Z,0.06
2023-01-23T22:23:37.462Z,0.09
2023-01-23T22:26:07.815Z,0.25
2023-01-23T22:28:34.490Z,0.23
2023-01-23T22:31:06.191Z,0.12
2023-01-23T22:33:40.147Z,0.08
2023-01-23T22:36:11.115Z,0.18
2023-01-23T22:38:38.048Z,0.18
2023-01-23T22:41:06.151Z,0.15
2023-01-23T22:43:33.195Z,0.16
2023-01-23T22:46:07.623Z,0.27
2023-01-23T22:48:34.619Z,0.30
2023-01-23T22:51:01.691Z,0.32
2023-01-23T22:53:28.314Z,0.18
2023-01-23T22:55:54.708Z,0.27
2023-01-23T22:58:21.281Z,0.23
2023-01-23T23:00:51.196Z,0.22
2023-01-23T23:03:19.043Z,0.22
2023-01-23T23:05:45.883Z,0.28
2023-01-23T23:08:12.294Z,0.29
2023-01-23T23:10:38.836Z,0.28
2023-01-23T23:13:07.405Z,0.25
2023-01-23T23:15:35.673Z,0.16
2023-01-23T23:18:02.249Z,0.23
2023-01-23T23:20:31.128Z,0.14
2023-01-23T23:22:58.922Z,0.21
2023-01-23T23:25:25.726Z,0.21
2023-01-23T23:27:52.173Z,0.32
2023-01-23T23:30:18.948Z,0.28
2023-01-23T23:32:45.773Z,0.36
2023-01-23T23:35:12.259Z,0.30
2023-01-23T23:37:42.217Z,0.38
2023-01-23T23:40:12.032Z,0.38
2023-01-23T23:42:41.696Z,0.30
2023-01-23T23:45:09.526Z,0.28
2023-01-23T23:47:35.950Z,0.30
2023-01-23T23:50:04.043Z,0.25
2023-01-23T23:52:30.661Z,0.27
2023-01-23T23:54:58.135Z,0.38
2023-01-23T23:57:24.893Z,0.27
2023-01-23T23:59:51.960Z,0.26
